createdAt,value
2022-07-25T00:01:49.998Z,98.00
2022-07-25T00:04:18.253Z,98.30
2022-07-25T00:06:46.077Z,98.70
2022-07-25T00:09:13.808Z,98.80
2022-07-25T00:11:40.847Z,98.60
2022-07-25T00:14:08.315Z,99.20
2022-07-25T00:16:35.600Z,99.30
2022-07-25T00:19:03.319Z,99.70
2022-07-25T00:21:30.181Z,99.90
2022-07-25T00:23:57.088Z,99.90
2022-07-25T00:26:23.973Z,99.90
2022-07-25T00:28:50.904Z,99.90
2022-07-25T00:31:17.834Z,99.90
2022-07-25T00:33:44.725Z,99.90
2022-07-25T00:36:11.628Z,99.90
2022-07-25T00:38:38.458Z,99.90
2022-07-25T00:41:05.713Z,99.90
2022-07-25T00:43:32.653Z,99.90
2022-07-25T00:46:00.494Z,99.90
2022-07-25T00:48:28.879Z,99.90
2022-07-25T00:50:56.853Z,99.90
2022-07-25T00:53:25.317Z,99.90
2022-07-25T00:55:52.685Z,99.90
2022-07-25T00:58:19.781Z,99.90
2022-07-25T01:00:47.969Z,99.90
2022-07-25T01:03:15.883Z,99.90
2022-07-25T01:05:43.143Z,99.90
2022-07-25T01:08:10.222Z,99.90
2022-07-25T01:10:38.359Z,99.90
2022-07-25T01:13:05.440Z,99.90
2022-07-25T01:15:32.638Z,99.90
2022-07-25T01:17:59.703Z,99.90
2022-07-25T01:20:29.212Z,99.90
2022-07-25T01:22:56.885Z,99.90
2022-07-25T01:25:24.558Z,99.90
2022-07-25T01:27:55.694Z,99.90
2022-07-25T01:30:24.830Z,99.90
2022-07-25T01:32:52.227Z,99.90
2022-07-25T01:35:19.611Z,99.90
2022-07-25T01:37:46.489Z,99.90
2022-07-25T01:40:14.404Z,99.90
2022-07-25T01:42:42.211Z,99.90
2022-07-25T01:45:09.885Z,99.90
2022-07-25T01:47:36.741Z,99.90
2022-07-25T01:50:04.804Z,99.90
2022-07-25T01:52:31.882Z,99.90
2022-07-25T01:54:59.048Z,99.90
2022-07-25T01:57:29.297Z,99.90
2022-07-25T01:59:58.444Z,99.90
2022-07-25T02:02:25.647Z,99.90
2022-07-25T02:04:52.770Z,99.90
2022-07-25T02:07:19.849Z,99.90
2022-07-25T02:09:46.716Z,99.90
2022-07-25T02:12:13.660Z,99.90
2022-07-25T02:14:40.941Z,99.90
2022-07-25T02:17:08.193Z,99.90
2022-07-25T02:19:36.413Z,99.90
2022-07-25T02:22:03.694Z,99.90
2022-07-25T02:24:31.094Z,99.90
2022-07-25T02:26:58.217Z,99.90
2022-07-25T02:29:25.700Z,99.90
2022-07-25T02:31:56.014Z,99.90
2022-07-25T02:34:22.957Z,99.90
2022-07-25T02:36:50.487Z,99.90
2022-07-25T02:39:17.406Z,99.90
2022-07-25T02:41:44.460Z,99.90
2022-07-25T02:44:11.388Z,99.90
2022-07-25T02:46:38.399Z,99.90
2022-07-25T02:49:05.477Z,99.90
2022-07-25T02:51:32.443Z,99.90
2022-07-25T02:53:59.394Z,99.90
2022-07-25T02:56:29.804Z,99.90
2022-07-25T02:58:57.699Z,99.90
2022-07-25T03:01:25.113Z,99.90
2022-07-25T03:03:52.791Z,99.90
2022-07-25T03:06:19.912Z,99.90
2022-07-25T03:08:47.144Z,99.90
2022-07-25T03:11:14.294Z,99.90
2022-07-25T03:13:41.328Z,99.90
2022-07-25T03:16:09.813Z,99.90
2022-07-25T03:18:36.795Z,99.90
2022-07-25T03:21:03.882Z,99.90
2022-07-25T03:23:31.077Z,99.90
2022-07-25T03:25:58.210Z,99.90
2022-07-25T03:28:25.394Z,99.90
2022-07-25T03:30:53.031Z,99.90
2022-07-25T03:33:20.161Z,99.90
2022-07-25T03:35:47.206Z,99.90
2022-07-25T03:38:14.272Z,99.90
2022-07-25T03:40:41.252Z,99.90
2022-07-25T03:43:08.629Z,99.90
2022-07-25T03:45:35.607Z,99.90
2022-07-25T03:48:02.870Z,99.90
2022-07-25T03:50:29.920Z,99.90
2022-07-25T03:52:57.018Z,99.90
2022-07-25T03:55:24.107Z,99.90
2022-07-25T03:57:51.192Z,99.90
2022-07-25T04:00:18.459Z,99.90
2022-07-25T04:02:46.079Z,99.90
2022-07-25T04:05:12.982Z,99.90
2022-07-25T04:07:39.927Z,99.90
2022-07-25T04:10:07.932Z,99.90
2022-07-25T04:12:34.993Z,99.90
2022-07-25T04:15:02.050Z,99.90
2022-07-25T04:17:29.116Z,99.90
2022-07-25T04:19:56.109Z,99.90
2022-07-25T04:22:23.772Z,99.90
2022-07-25T04:24:50.756Z,99.90
2022-07-25T04:27:17.814Z,99.90
2022-07-25T04:29:44.763Z,99.90
2022-07-25T04:32:11.960Z,99.90
2022-07-25T04:34:38.921Z,99.90
2022-07-25T04:37:06.004Z,99.90
2022-07-25T04:39:32.963Z,99.90
2022-07-25T04:41:59.806Z,99.90
2022-07-25T04:44:26.839Z,99.90
2022-07-25T04:46:53.788Z,99.90
2022-07-25T04:49:21.817Z,99.90
2022-07-25T04:51:49.216Z,99.90
2022-07-25T04:54:16.214Z,99.90
2022-07-25T04:56:43.186Z,99.90
2022-07-25T04:59:10.654Z,99.90
2022-07-25T05:01:37.647Z,99.90
2022-07-25T05:04:05.487Z,99.90
2022-07-25T05:06:33.244Z,99.90
2022-07-25T05:09:00.575Z,99.90
2022-07-25T05:11:27.829Z,99.90
2022-07-25T05:13:55.741Z,99.90
2022-07-25T05:16:23.186Z,99.90
2022-07-25T05:18:50.254Z,99.90
2022-07-25T05:21:17.204Z,99.90
2022-07-25T05:23:44.245Z,99.90
2022-07-25T05:26:11.161Z,99.90
2022-07-25T05:28:38.238Z,99.90
2022-07-25T05:31:05.859Z,99.90
2022-07-25T05:33:34.315Z,99.90
2022-07-25T05:36:03.352Z,99.90
2022-07-25T05:38:30.514Z,99.90
2022-07-25T05:40:57.977Z,99.90
2022-07-25T05:43:24.991Z,99.90
2022-07-25T05:45:52.343Z,99.90
2022-07-25T05:48:19.289Z,99.90
2022-07-25T05:50:46.255Z,99.90
2022-07-25T05:53:13.102Z,99.90
2022-07-25T05:55:40.969Z,99.90
2022-07-25T05:58:09.576Z,99.90
2022-07-25T06:00:37.625Z,99.90
2022-07-25T06:03:05.233Z,99.90
2022-07-25T06:05:32.553Z,99.90
2022-07-25T06:07:59.700Z,99.90
2022-07-25T06:10:27.265Z,99.90
2022-07-25T06:12:54.385Z,99.90
2022-07-25T06:15:23.155Z,99.90
2022-07-25T06:17:54.866Z,99.90
2022-07-25T06:20:22.615Z,99.90
2022-07-25T06:22:49.803Z,99.90
2022-07-25T06:25:17.070Z,99.90
2022-07-25T06:27:43.997Z,99.90
2022-07-25T06:30:19.855Z,99.90
2022-07-25T06:32:50.868Z,99.90
2022-07-25T06:35:18.303Z,99.90
2022-07-25T06:37:45.408Z,99.90
2022-07-25T06:40:12.873Z,99.90
2022-07-25T06:42:42.047Z,99.60
2022-07-25T06:45:11.021Z,99.80
2022-07-25T06:47:39.356Z,99.90
2022-07-25T06:50:08.584Z,99.00
2022-07-25T06:52:38.815Z,98.40
2022-07-25T06:55:08.115Z,98.40
2022-07-25T06:57:36.052Z,98.00
2022-07-25T07:00:09.903Z,98.20
2022-07-25T07:02:53.201Z,97.80
2022-07-25T07:05:21.151Z,97.60
2022-07-25T07:07:48.349Z,97.70
2022-07-25T07:10:16.763Z,97.60
2022-07-25T07:12:44.485Z,97.30
2022-07-25T07:15:12.337Z,97.10
2022-07-25T07:17:39.570Z,96.80
2022-07-25T07:20:08.338Z,96.70
2022-07-25T07:22:47.224Z,96.50
2022-07-25T07:25:15.832Z,96.50
2022-07-25T07:27:43.869Z,96.50
2022-07-25T07:30:12.289Z,96.70
2022-07-25T07:32:39.216Z,95.40
2022-07-25T07:35:06.603Z,95.90
2022-07-25T07:37:38.732Z,95.60
2022-07-25T07:40:09.470Z,95.50
2022-07-25T07:42:47.090Z,95.40
2022-07-25T07:45:17.700Z,94.30
2022-07-25T07:47:47.959Z,94.70
2022-07-25T07:50:17.162Z,94.30
2022-07-25T07:52:45.277Z,94.00
2022-07-25T07:55:31.596Z,94.20
2022-07-25T07:57:59.780Z,93.50
2022-07-25T08:00:28.394Z,93.50
2022-07-25T08:02:55.839Z,92.70
2022-07-25T08:05:27.559Z,93.30
2022-07-25T08:07:54.709Z,91.70
2022-07-25T08:10:24.684Z,92.60
2022-07-25T08:12:52.041Z,92.00
2022-07-25T08:15:20.590Z,91.80
2022-07-25T08:17:48.889Z,91.50
2022-07-25T08:20:36.747Z,91.30
2022-07-25T08:23:06.011Z,90.80
2022-07-25T08:25:33.595Z,91.10
2022-07-25T08:28:00.524Z,90.50
2022-07-25T08:30:27.843Z,90.90
2022-07-25T08:32:57.125Z,91.10
2022-07-25T08:35:26.652Z,90.10
2022-07-25T08:37:55.014Z,90.30
2022-07-25T08:40:23.813Z,90.30
2022-07-25T08:42:51.630Z,88.50
2022-07-25T08:45:19.665Z,87.10
2022-07-25T08:47:48.360Z,86.50
2022-07-25T08:50:17.801Z,86.00
2022-07-25T08:52:47.543Z,85.80
2022-07-25T08:55:20.039Z,87.60
2022-07-25T08:57:49.361Z,84.70
2022-07-25T09:00:19.939Z,85.40
2022-07-25T09:03:02.514Z,83.90
2022-07-25T09:05:32.014Z,79.10
2022-07-25T09:08:07.627Z,79.70
2022-07-25T09:10:36.917Z,79.20
2022-07-25T09:13:07.901Z,77.60
2022-07-25T09:15:40.888Z,76.80
2022-07-25T09:18:10.848Z,76.30
2022-07-25T09:20:45.720Z,75.20
2022-07-25T09:23:32.749Z,72.60
2022-07-25T09:26:11.279Z,71.80
2022-07-25T09:28:46.406Z,70.40
2022-07-25T09:31:14.871Z,73.80
2022-07-25T09:33:59.087Z,71.50
2022-07-25T09:36:26.288Z,71.10
2022-07-25T09:38:54.920Z,71.90
2022-07-25T09:41:21.863Z,69.50
2022-07-25T09:43:48.992Z,68.80
2022-07-25T09:46:16.136Z,66.40
2022-07-25T09:48:45.567Z,66.90
2022-07-25T09:51:12.576Z,65.20
2022-07-25T09:53:41.020Z,64.60
2022-07-25T09:56:08.684Z,63.60
2022-07-25T09:58:35.907Z,64.60
2022-07-25T10:01:06.759Z,63.60
2022-07-25T10:03:52.869Z,62.30
2022-07-25T10:06:40.014Z,62.40
2022-07-25T10:09:14.219Z,61.40
2022-07-25T10:12:01.461Z,61.80
2022-07-25T10:14:28.440Z,61.00
2022-07-25T10:16:55.435Z,60.00
2022-07-25T10:19:51.811Z,60.50
2022-07-25T10:22:34.410Z,60.40
2022-07-25T10:25:19.287Z,60.20
2022-07-25T10:27:52.946Z,59.00
2022-07-25T10:30:25.381Z,57.50
2022-07-25T10:33:00.524Z,58.00
2022-07-25T10:35:28.472Z,58.30
2022-07-25T10:37:57.644Z,57.20
2022-07-25T10:40:39.503Z,56.20
2022-07-25T10:43:13.478Z,55.80
2022-07-25T10:45:52.929Z,55.90
2022-07-25T10:48:29.088Z,55.00
2022-07-25T10:51:00.241Z,53.90
2022-07-25T10:53:35.862Z,54.30
2022-07-25T10:56:09.132Z,55.70
2022-07-25T10:58:52.135Z,54.00
2022-07-25T11:01:32.384Z,53.50
2022-07-25T11:04:02.689Z,53.30
2022-07-25T11:06:35.725Z,54.60
2022-07-25T11:09:17.621Z,52.20
2022-07-25T11:11:50.405Z,52.70
2022-07-25T11:14:25.828Z,54.30
2022-07-25T11:16:55.111Z,53.00
2022-07-25T11:19:27.376Z,52.60
2022-07-25T11:22:00.094Z,52.80
2022-07-25T11:24:41.443Z,52.10
2022-07-25T11:27:12.709Z,52.70
2022-07-25T11:29:40.839Z,51.20
2022-07-25T11:32:12.552Z,50.60
2022-07-25T11:34:48.151Z,52.30
2022-07-25T11:37:16.311Z,51.90
2022-07-25T11:39:47.578Z,51.50
2022-07-25T11:42:18.569Z,51.80
2022-07-25T11:44:51.383Z,53.00
2022-07-25T11:47:32.877Z,52.00
2022-07-25T11:50:02.487Z,50.60
2022-07-25T11:52:33.210Z,50.90
2022-07-25T11:55:06.686Z,49.80
2022-07-25T11:57:35.516Z,49.50
2022-07-25T12:00:09.508Z,49.70
2022-07-25T12:02:37.110Z,49.90
2022-07-25T12:05:06.851Z,51.20
2022-07-25T12:07:44.641Z,49.80
2022-07-25T12:10:24.015Z,49.40
2022-07-25T12:12:54.837Z,48.80
2022-07-25T12:15:24.819Z,48.70
2022-07-25T12:17:53.325Z,48.90
2022-07-25T12:20:23.586Z,50.20
2022-07-25T12:22:53.804Z,50.50
2022-07-25T12:25:21.388Z,47.60
2022-07-25T12:27:49.729Z,46.40
2022-07-25T12:30:17.435Z,47.00
2022-07-25T12:32:44.723Z,47.10
2022-07-25T12:35:13.947Z,47.50
2022-07-25T12:37:41.794Z,47.40
2022-07-25T12:40:10.742Z,48.00
2022-07-25T12:42:37.736Z,47.20
2022-07-25T12:45:05.400Z,47.10
2022-07-25T12:47:32.360Z,47.00
2022-07-25T12:49:59.507Z,46.90
2022-07-25T12:52:26.807Z,47.30
2022-07-25T12:54:54.014Z,48.10
2022-07-25T12:57:20.914Z,47.50
2022-07-25T12:59:48.089Z,45.50
2022-07-25T13:02:15.706Z,46.80
2022-07-25T13:04:43.127Z,46.60
2022-07-25T13:07:10.166Z,46.00
2022-07-25T13:09:37.092Z,47.00
2022-07-25T13:12:04.316Z,46.70
2022-07-25T13:14:31.340Z,47.10
2022-07-25T13:16:58.544Z,47.50
2022-07-25T13:19:25.518Z,46.70
2022-07-25T13:21:52.415Z,47.50
2022-07-25T13:24:19.361Z,48.20
2022-07-25T13:26:46.410Z,48.50
2022-07-25T13:29:13.404Z,49.50
2022-07-25T13:31:41.657Z,49.80
2022-07-25T13:34:09.906Z,50.00
2022-07-25T13:36:38.253Z,49.20
2022-07-25T13:39:06.451Z,49.30
2022-07-25T13:41:33.571Z,49.00
2022-07-25T13:44:00.750Z,49.10
2022-07-25T13:46:27.794Z,48.90
2022-07-25T13:48:55.575Z,49.90
2022-07-25T13:51:22.517Z,51.10
2022-07-25T13:53:49.988Z,51.60
2022-07-25T13:56:17.380Z,51.20
2022-07-25T13:58:44.333Z,51.50
2022-07-25T14:01:15.259Z,51.80
2022-07-25T14:03:42.287Z,52.10
2022-07-25T14:06:11.331Z,52.30
2022-07-25T14:08:40.454Z,53.00
2022-07-25T14:11:08.373Z,52.70
2022-07-25T14:13:36.456Z,54.00
2022-07-25T14:16:03.699Z,53.50
2022-07-25T14:18:31.986Z,56.70
2022-07-25T14:20:59.705Z,54.50
2022-07-25T14:23:30.064Z,55.80
2022-07-25T14:25:59.132Z,55.10
2022-07-25T14:28:26.599Z,55.70
2022-07-25T14:30:53.632Z,54.80
2022-07-25T14:33:20.675Z,55.80
2022-07-25T14:35:47.678Z,56.30
2022-07-25T14:38:15.292Z,54.50
2022-07-25T14:40:42.940Z,54.90
2022-07-25T14:43:09.850Z,54.90
2022-07-25T14:45:37.239Z,54.30
2022-07-25T14:48:07.532Z,54.80
2022-07-25T14:50:34.530Z,54.80
2022-07-25T14:53:01.533Z,56.00
2022-07-25T14:55:28.771Z,55.50
2022-07-25T14:57:58.126Z,54.90
2022-07-25T15:00:29.472Z,54.30
2022-07-25T15:02:57.462Z,54.70
2022-07-25T15:05:24.491Z,53.60
2022-07-25T15:07:51.437Z,54.30
2022-07-25T15:10:18.598Z,53.90
2022-07-25T15:12:45.648Z,54.20
2022-07-25T15:15:12.692Z,54.30
2022-07-25T15:17:39.840Z,55.60
2022-07-25T15:20:07.664Z,54.20
2022-07-25T15:22:34.617Z,54.50
2022-07-25T15:25:57.920Z,54.90
2022-07-25T15:27:49.281Z,54.50
2022-07-25T15:30:16.262Z,53.40
2022-07-25T15:32:43.935Z,54.10
2022-07-25T15:35:10.996Z,53.10
2022-07-25T15:37:37.993Z,53.10
2022-07-25T15:40:05.545Z,53.30
2022-07-25T15:42:33.606Z,52.70
2022-07-25T15:45:31.600Z,54.00
2022-07-25T15:47:51.089Z,53.20
2022-07-25T15:50:19.169Z,52.90
2022-07-25T15:52:47.716Z,53.00
2022-07-25T15:55:15.415Z,53.70
2022-07-25T15:57:42.456Z,53.80
2022-07-25T16:00:09.860Z,54.60
2022-07-25T16:02:36.852Z,55.00
2022-07-25T16:05:04.658Z,54.40
2022-07-25T16:07:31.997Z,55.40
2022-07-25T16:09:59.207Z,55.30
2022-07-25T16:12:28.636Z,55.10
2022-07-25T16:14:56.150Z,55.60
2022-07-25T16:17:23.782Z,56.30
2022-07-25T16:19:50.790Z,56.80
2022-07-25T16:22:17.835Z,58.00
2022-07-25T16:24:44.971Z,57.20
2022-07-25T16:27:12.114Z,57.80
2022-07-25T16:29:39.968Z,58.00
2022-07-25T16:32:07.846Z,58.00
2022-07-25T16:34:35.405Z,58.20
2022-07-25T16:37:03.767Z,57.70
2022-07-25T16:39:30.724Z,57.80
2022-07-25T16:41:57.664Z,58.60
2022-07-25T16:44:24.624Z,58.40
2022-07-25T16:46:51.914Z,58.30
2022-07-25T16:49:19.257Z,58.70
2022-07-25T16:51:46.456Z,59.30
2022-07-25T16:54:13.442Z,59.70
2022-07-25T16:56:41.070Z,60.40
2022-07-25T16:59:08.759Z,60.90
2022-07-25T17:01:36.362Z,61.20
2022-07-25T17:04:04.115Z,61.60
2022-07-25T17:06:31.648Z,62.20
2022-07-25T17:08:58.820Z,62.40
2022-07-25T17:11:26.852Z,63.00
2022-07-25T17:13:53.730Z,63.00
2022-07-25T17:16:20.750Z,63.40
2022-07-25T17:18:47.696Z,63.40
2022-07-25T17:21:16.761Z,64.00
2022-07-25T17:23:44.035Z,64.60
2022-07-25T17:26:11.381Z,64.90
2022-07-25T17:28:38.510Z,65.10
2022-07-25T17:31:05.773Z,65.60
2022-07-25T17:33:32.851Z,65.90
2022-07-25T17:36:00.392Z,65.80
2022-07-25T17:38:31.611Z,66.70
2022-07-25T17:41:01.641Z,67.00
2022-07-25T17:43:29.119Z,66.80
2022-07-25T17:45:56.727Z,66.70
2022-07-25T17:48:23.799Z,66.10
2022-07-25T17:50:52.288Z,66.30
2022-07-25T17:53:19.372Z,66.30
2022-07-25T17:55:46.359Z,66.20
2022-07-25T17:58:13.808Z,67.20
2022-07-25T18:00:40.854Z,67.10
2022-07-25T18:03:08.416Z,67.60
2022-07-25T18:05:35.636Z,67.20
2022-07-25T18:08:04.038Z,67.90
2022-07-25T18:10:31.522Z,67.30
2022-07-25T18:13:00.823Z,67.40
2022-07-25T18:15:28.498Z,68.20
2022-07-25T18:17:55.449Z,68.80
2022-07-25T18:20:24.244Z,68.00
2022-07-25T18:22:51.364Z,68.00
2022-07-25T18:25:18.519Z,68.20
2022-07-25T18:27:47.153Z,68.60
2022-07-25T18:30:15.247Z,66.90
2022-07-25T18:32:43.136Z,66.70
2022-07-25T18:35:11.285Z,66.90
2022-07-25T18:37:38.364Z,66.30
2022-07-25T18:40:07.269Z,66.00
2022-07-25T18:42:36.051Z,66.40
2022-07-25T18:45:04.201Z,66.70
2022-07-25T18:47:34.857Z,66.80
2022-07-25T18:50:02.818Z,67.60
2022-07-25T18:52:34.892Z,67.00
2022-07-25T18:55:06.727Z,67.10
2022-07-25T18:57:34.470Z,66.50
2022-07-25T19:00:03.399Z,66.30
2022-07-25T19:02:30.870Z,66.60
2022-07-25T19:04:58.110Z,66.80
2022-07-25T19:07:26.050Z,67.20
2022-07-25T19:09:53.101Z,67.50
2022-07-25T19:12:20.216Z,67.40
2022-07-25T19:14:47.330Z,67.40
2022-07-25T19:17:14.542Z,67.10
2022-07-25T19:19:42.073Z,67.40
2022-07-25T19:22:09.076Z,67.70
2022-07-25T19:24:35.951Z,67.60
2022-07-25T19:27:06.229Z,67.60
2022-07-25T19:29:33.923Z,67.90
2022-07-25T19:32:01.343Z,68.30
2022-07-25T19:34:28.301Z,68.70
2022-07-25T19:36:56.406Z,68.30
2022-07-25T19:39:24.641Z,68.60
2022-07-25T19:41:52.696Z,68.50
2022-07-25T19:44:19.827Z,67.90
2022-07-25T19:46:48.766Z,68.70
2022-07-25T19:49:15.874Z,67.90
2022-07-25T19:51:43.005Z,68.30
2022-07-25T19:54:10.474Z,68.00
2022-07-25T19:56:37.875Z,68.30
2022-07-25T19:59:04.819Z,68.80
2022-07-25T20:01:35.833Z,68.30
2022-07-25T20:04:05.442Z,68.20
2022-07-25T20:06:32.858Z,68.30
2022-07-25T20:08:59.857Z,68.40
2022-07-25T20:11:26.992Z,68.10
2022-07-25T20:13:54.199Z,68.40
2022-07-25T20:16:21.184Z,68.30
2022-07-25T20:18:48.463Z,69.50
2022-07-25T20:21:18.046Z,69.20
2022-07-25T20:23:45.747Z,68.90
2022-07-25T20:26:13.481Z,68.50
2022-07-25T20:28:40.765Z,68.60
2022-07-25T20:31:07.686Z,68.80
2022-07-25T20:33:34.857Z,69.10
2022-07-25T20:36:01.949Z,69.20
2022-07-25T20:38:28.925Z,69.30
2022-07-25T20:40:56.149Z,69.40
2022-07-25T20:43:22.984Z,69.10
2022-07-25T20:45:50.027Z,69.40
2022-07-25T20:48:17.228Z,69.00
2022-07-25T20:50:44.763Z,69.50
2022-07-25T20:53:11.818Z,69.20
2022-07-25T20:55:38.883Z,69.40
2022-07-25T20:58:05.821Z,69.50
2022-07-25T21:00:32.892Z,69.70
2022-07-25T21:03:00.461Z,69.50
2022-07-25T21:05:28.730Z,69.50
2022-07-25T21:07:55.991Z,69.50
2022-07-25T21:10:23.500Z,69.80
2022-07-25T21:12:50.518Z,69.40
2022-07-25T21:15:17.585Z,69.80
2022-07-25T21:17:44.709Z,70.20
2022-07-25T21:20:13.578Z,70.50
2022-07-25T21:22:41.128Z,70.80
2022-07-25T21:25:08.959Z,71.20
2022-07-25T21:27:36.654Z,70.40
2022-07-25T21:30:05.856Z,71.50
2022-07-25T21:32:32.981Z,71.60
2022-07-25T21:34:59.848Z,71.90
2022-07-25T21:37:26.958Z,72.40
2022-07-25T21:39:54.112Z,72.50
2022-07-25T21:42:21.272Z,73.10
2022-07-25T21:44:48.273Z,73.20
2022-07-25T21:47:15.163Z,73.30
2022-07-25T21:50:01.310Z,74.10
2022-07-25T21:52:34.372Z,74.50
2022-07-25T21:55:03.516Z,74.40
2022-07-25T21:57:31.253Z,74.60
2022-07-25T21:59:58.208Z,74.70
2022-07-25T22:02:25.531Z,74.50
2022-07-25T22:04:52.908Z,74.70
2022-07-25T22:07:20.114Z,75.00
2022-07-25T22:09:47.027Z,75.20
2022-07-25T22:12:15.257Z,75.00
2022-07-25T22:14:42.280Z,74.70
2022-07-25T22:17:09.462Z,74.90
2022-07-25T22:19:36.409Z,75.10
2022-07-25T22:22:05.981Z,75.30
2022-07-25T22:24:33.281Z,75.70
2022-07-25T22:27:00.282Z,75.80
2022-07-25T22:29:27.181Z,76.20
2022-07-25T22:31:54.120Z,76.80
2022-07-25T22:34:21.314Z,77.20
2022-07-25T22:36:48.356Z,77.20
2022-07-25T22:39:16.701Z,77.70
2022-07-25T22:41:43.885Z,77.90
2022-07-25T22:44:10.951Z,77.90
2022-07-25T22:46:37.977Z,77.90
2022-07-25T22:49:05.299Z,77.60
2022-07-25T22:51:32.818Z,78.10
2022-07-25T22:54:00.569Z,77.80
2022-07-25T22:56:28.442Z,78.50
2022-07-25T22:58:55.678Z,78.70
2022-07-25T23:01:23.518Z,78.80
2022-07-25T23:03:50.649Z,79.20
2022-07-25T23:06:19.669Z,79.30
2022-07-25T23:08:47.148Z,79.40
2022-07-25T23:11:14.184Z,79.70
2022-07-25T23:13:41.134Z,79.90
2022-07-25T23:16:10.369Z,80.60
2022-07-25T23:18:38.308Z,80.90
2022-07-25T23:21:05.836Z,80.70
2022-07-25T23:23:32.789Z,80.70
2022-07-25T23:25:59.757Z,81.60
2022-07-25T23:28:26.927Z,80.90
2022-07-25T23:30:54.422Z,81.10
2022-07-25T23:33:21.928Z,81.00
2022-07-25T23:35:53.501Z,81.50
2022-07-25T23:38:20.833Z,81.60
2022-07-25T23:40:47.947Z,81.70
2022-07-25T23:43:17.000Z,81.60
2022-07-25T23:45:56.480Z,81.60
2022-07-25T23:48:23.422Z,81.50
2022-07-25T23:50:50.425Z,81.60
2022-07-25T23:53:17.452Z,82.20
2022-07-25T23:55:44.399Z,81.80
2022-07-25T23:58:11.332Z,81.50
